sensor_id;sensor_type;location;lat;lon;timestamp;P1;durP1;ratioP1;P2;durP2;ratioP2
12429;SDS011;6279;42.192;24.326;2022-09-12T00:00:47;5.33;;;4.93;;
12429;SDS011;6279;42.192;24.326;2022-09-12T00:03:12;7.27;;;5.00;;
12429;SDS011;6279;42.192;24.326;2022-09-12T00:05:42;5.60;;;4.73;;
12429;SDS011;6279;42.192;24.326;2022-09-12T00:08:11;6.03;;;5.43;;
12429;SDS011;6279;42.192;24.326;2022-09-12T00:10:38;7.60;;;5.60;;
12429;SDS011;6279;42.192;24.326;2022-09-12T00:13:05;7.03;;;5.50;;
12429;SDS011;6279;42.192;24.326;2022-09-12T00:15:31;5.93;;;5.33;;
12429;SDS011;6279;42.192;24.326;2022-09-12T00:18:01;6.63;;;5.57;;
12429;SDS011;6279;42.192;24.326;2022-09-12T00:20:26;6.37;;;5.77;;
12429;SDS011;6279;42.192;24.326;2022-09-12T00:22:52;6.57;;;5.50;;
12429;SDS011;6279;42.192;24.326;2022-09-12T00:25:17;6.73;;;6.03;;
12429;SDS011;6279;42.192;24.326;2022-09-12T00:27:43;6.77;;;6.17;;
12429;SDS011;6279;42.192;24.326;2022-09-12T00:30:08;7.20;;;6.50;;
12429;SDS011;6279;42.192;24.326;2022-09-12T00:32:34;7.93;;;7.23;;
12429;SDS011;6279;42.192;24.326;2022-09-12T00:34:59;8.80;;;8.03;;
12429;SDS011;6279;42.192;24.326;2022-09-12T00:37:26;8.77;;;8.07;;
12429;SDS011;6279;42.192;24.326;2022-09-12T00:39:52;10.07;;;8.87;;
12429;SDS011;6279;42.192;24.326;2022-09-12T00:42:17;10.57;;;7.80;;
12429;SDS011;6279;42.192;24.326;2022-09-12T00:44:44;9.20;;;8.27;;
12429;SDS011;6279;42.192;24.326;2022-09-12T00:47:13;9.10;;;8.30;;
12429;SDS011;6279;42.192;24.326;2022-09-12T00:52:23;9.13;;;7.43;;
12429;SDS011;6279;42.192;24.326;2022-09-12T00:54:59;7.97;;;7.23;;
12429;SDS011;6279;42.192;24.326;2022-09-12T00:57:31;7.10;;;6.40;;
12429;SDS011;6279;42.192;24.326;2022-09-12T01:00:07;8.40;;;7.60;;
12429;SDS011;6279;42.192;24.326;2022-09-12T01:02:37;7.87;;;6.83;;
12429;SDS011;6279;42.192;24.326;2022-09-12T01:05:04;7.43;;;6.47;;
12429;SDS011;6279;42.192;24.326;2022-09-12T01:07:30;7.37;;;6.73;;
12429;SDS011;6279;42.192;24.326;2022-09-12T01:09:58;8.63;;;6.93;;
12429;SDS011;6279;42.192;24.326;2022-09-12T01:12:24;8.87;;;6.70;;
12429;SDS011;6279;42.192;24.326;2022-09-12T01:14:49;9.47;;;7.37;;
12429;SDS011;6279;42.192;24.326;2022-09-12T01:17:15;6.70;;;6.00;;
12429;SDS011;6279;42.192;24.326;2022-09-12T01:31:30;6.33;;;5.73;;
12429;SDS011;6279;42.192;24.326;2022-09-12T01:34:22;6.77;;;5.23;;
12429;SDS011;6279;42.192;24.326;2022-09-12T01:39:26;9.07;;;4.60;;
12429;SDS011;6279;42.192;24.326;2022-09-12T01:42:08;5.53;;;4.33;;
12429;SDS011;6279;42.192;24.326;2022-09-12T01:47:40;4.87;;;4.37;;
12429;SDS011;6279;42.192;24.326;2022-09-12T01:50:08;6.77;;;4.87;;
12429;SDS011;6279;42.192;24.326;2022-09-12T01:52:49;5.40;;;4.33;;
12429;SDS011;6279;42.192;24.326;2022-09-12T01:55:19;4.63;;;4.23;;
12429;SDS011;6279;42.192;24.326;2022-09-12T01:57:53;5.37;;;4.60;;
12429;SDS011;6279;42.192;24.326;2022-09-12T02:00:24;4.40;;;4.10;;
12429;SDS011;6279;42.192;24.326;2022-09-12T02:02:51;6.07;;;4.40;;
12429;SDS011;6279;42.192;24.326;2022-09-12T02:05:55;4.70;;;4.30;;
12429;SDS011;6279;42.192;24.326;2022-09-12T02:08:27;6.23;;;4.80;;
12429;SDS011;6279;42.192;24.326;2022-09-12T02:11:07;10.20;;;4.57;;
12429;SDS011;6279;42.192;24.326;2022-09-12T02:16:36;5.43;;;4.53;;
12429;SDS011;6279;42.192;24.326;2022-09-12T02:19:11;5.10;;;4.60;;
12429;SDS011;6279;42.192;24.326;2022-09-12T02:21:41;5.10;;;4.33;;
12429;SDS011;6279;42.192;24.326;2022-09-12T02:24:12;4.13;;;3.70;;
12429;SDS011;6279;42.192;24.326;2022-09-12T02:26:41;5.17;;;4.00;;
12429;SDS011;6279;42.192;24.326;2022-09-12T02:29:19;6.73;;;4.00;;
12429;SDS011;6279;42.192;24.326;2022-09-12T02:34:38;4.17;;;3.77;;
12429;SDS011;6279;42.192;24.326;2022-09-12T02:37:24;4.43;;;4.03;;
12429;SDS011;6279;42.192;24.326;2022-09-12T02:39:58;4.10;;;3.80;;
12429;SDS011;6279;42.192;24.326;2022-09-12T02:42:24;5.27;;;3.77;;
12429;SDS011;6279;42.192;24.326;2022-09-12T02:44:50;4.30;;;3.80;;
12429;SDS011;6279;42.192;24.326;2022-09-12T02:47:19;6.17;;;4.10;;
12429;SDS011;6279;42.192;24.326;2022-09-12T02:49:51;4.00;;;3.53;;
12429;SDS011;6279;42.192;24.326;2022-09-12T02:52:17;3.97;;;3.50;;
12429;SDS011;6279;42.192;24.326;2022-09-12T02:54:43;3.90;;;3.47;;
12429;SDS011;6279;42.192;24.326;2022-09-12T02:57:19;4.20;;;3.80;;
12429;SDS011;6279;42.192;24.326;2022-09-12T02:59:46;4.27;;;3.60;;
12429;SDS011;6279;42.192;24.326;2022-09-12T03:02:15;4.80;;;3.63;;
12429;SDS011;6279;42.192;24.326;2022-09-12T03:04:57;4.63;;;3.90;;
12429;SDS011;6279;42.192;24.326;2022-09-12T03:18:35;3.77;;;3.47;;
12429;SDS011;6279;42.192;24.326;2022-09-12T03:26:41;4.23;;;3.37;;
12429;SDS011;6279;42.192;24.326;2022-09-12T03:29:12;3.83;;;3.03;;
12429;SDS011;6279;42.192;24.326;2022-09-12T03:31:49;3.33;;;3.03;;
12429;SDS011;6279;42.192;24.326;2022-09-12T03:34:19;3.37;;;3.07;;
12429;SDS011;6279;42.192;24.326;2022-09-12T03:36:46;3.90;;;2.93;;
12429;SDS011;6279;42.192;24.326;2022-09-12T03:39:12;3.90;;;2.67;;
12429;SDS011;6279;42.192;24.326;2022-09-12T03:41:37;3.53;;;3.23;;
12429;SDS011;6279;42.192;24.326;2022-09-12T03:44:03;3.47;;;2.70;;
12429;SDS011;6279;42.192;24.326;2022-09-12T03:46:29;3.37;;;2.97;;
12429;SDS011;6279;42.192;24.326;2022-09-12T03:48:54;3.23;;;2.90;;
12429;SDS011;6279;42.192;24.326;2022-09-12T03:51:19;4.33;;;3.27;;
12429;SDS011;6279;42.192;24.326;2022-09-12T03:53:45;3.60;;;2.77;;
12429;SDS011;6279;42.192;24.326;2022-09-12T03:56:11;3.23;;;2.80;;
12429;SDS011;6279;42.192;24.326;2022-09-12T03:58:37;4.53;;;3.23;;
12429;SDS011;6279;42.192;24.326;2022-09-12T04:01:07;3.90;;;2.80;;
12429;SDS011;6279;42.192;24.326;2022-09-12T04:03:36;3.33;;;2.70;;
12429;SDS011;6279;42.192;24.326;2022-09-12T04:06:06;7.43;;;3.00;;
12429;SDS011;6279;42.192;24.326;2022-09-12T04:08:33;2.90;;;2.67;;
12429;SDS011;6279;42.192;24.326;2022-09-12T04:11:03;4.27;;;3.07;;
12429;SDS011;6279;42.192;24.326;2022-09-12T04:13:30;6.53;;;2.90;;
12429;SDS011;6279;42.192;24.326;2022-09-12T04:15:58;2.90;;;2.70;;
12429;SDS011;6279;42.192;24.326;2022-09-12T04:18:24;5.50;;;3.00;;
12429;SDS011;6279;42.192;24.326;2022-09-12T04:20:50;3.80;;;2.90;;
12429;SDS011;6279;42.192;24.326;2022-09-12T04:23:15;4.30;;;3.17;;
12429;SDS011;6279;42.192;24.326;2022-09-12T04:25:41;4.67;;;3.30;;
12429;SDS011;6279;42.192;24.326;2022-09-12T04:28:06;5.70;;;3.33;;
12429;SDS011;6279;42.192;24.326;2022-09-12T04:30:32;3.53;;;2.70;;
12429;SDS011;6279;42.192;24.326;2022-09-12T04:32:58;4.07;;;3.00;;
12429;SDS011;6279;42.192;24.326;2022-09-12T04:35:23;3.53;;;2.57;;
12429;SDS011;6279;42.192;24.326;2022-09-12T04:37:49;4.07;;;2.77;;
12429;SDS011;6279;42.192;24.326;2022-09-12T04:40:14;4.87;;;2.87;;
12429;SDS011;6279;42.192;24.326;2022-09-12T04:42:40;2.43;;;2.23;;
12429;SDS011;6279;42.192;24.326;2022-09-12T04:45:05;4.43;;;2.40;;
12429;SDS011;6279;42.192;24.326;2022-09-12T04:47:31;2.97;;;2.60;;
12429;SDS011;6279;42.192;24.326;2022-09-12T04:49:57;4.50;;;2.47;;
12429;SDS011;6279;42.192;24.326;2022-09-12T04:52:22;3.57;;;2.53;;
12429;SDS011;6279;42.192;24.326;2022-09-12T04:54:48;3.40;;;2.60;;
12429;SDS011;6279;42.192;24.326;2022-09-12T04:57:13;6.47;;;2.30;;
12429;SDS011;6279;42.192;24.326;2022-09-12T04:59:38;4.67;;;2.10;;
12429;SDS011;6279;42.192;24.326;2022-09-12T05:02:04;2.57;;;2.37;;
12429;SDS011;6279;42.192;24.326;2022-09-12T05:04:29;6.27;;;2.67;;
12429;SDS011;6279;42.192;24.326;2022-09-12T05:06:55;3.20;;;2.00;;
12429;SDS011;6279;42.192;24.326;2022-09-12T05:09:21;7.03;;;2.47;;
12429;SDS011;6279;42.192;24.326;2022-09-12T05:11:46;4.87;;;2.67;;
12429;SDS011;6279;42.192;24.326;2022-09-12T05:14:12;6.37;;;2.80;;
12429;SDS011;6279;42.192;24.326;2022-09-12T05:16:39;3.73;;;2.33;;
12429;SDS011;6279;42.192;24.326;2022-09-12T05:19:05;9.50;;;2.40;;
12429;SDS011;6279;42.192;24.326;2022-09-12T05:21:31;2.20;;;2.00;;
12429;SDS011;6279;42.192;24.326;2022-09-12T05:23:56;2.73;;;2.30;;
12429;SDS011;6279;42.192;24.326;2022-09-12T05:26:25;2.47;;;1.97;;
12429;SDS011;6279;42.192;24.326;2022-09-12T05:28:52;2.60;;;2.40;;
12429;SDS011;6279;42.192;24.326;2022-09-12T05:33:44;3.60;;;2.17;;
12429;SDS011;6279;42.192;24.326;2022-09-12T05:36:12;5.57;;;1.93;;
12429;SDS011;6279;42.192;24.326;2022-09-12T05:38:39;4.33;;;1.70;;
12429;SDS011;6279;42.192;24.326;2022-09-12T05:41:14;5.97;;;2.23;;
12429;SDS011;6279;42.192;24.326;2022-09-12T05:43:42;2.70;;;1.70;;
12429;SDS011;6279;42.192;24.326;2022-09-12T05:48:39;3.03;;;1.60;;
12429;SDS011;6279;42.192;24.326;2022-09-12T05:51:07;5.43;;;1.70;;
12429;SDS011;6279;42.192;24.326;2022-09-12T05:53:36;3.67;;;1.20;;
12429;SDS011;6279;42.192;24.326;2022-09-12T05:56:13;2.30;;;1.70;;
12429;SDS011;6279;42.192;24.326;2022-09-12T05:58:41;4.13;;;1.80;;
12429;SDS011;6279;42.192;24.326;2022-09-12T06:01:12;3.37;;;1.80;;
12429;SDS011;6279;42.192;24.326;2022-09-12T06:03:44;3.97;;;1.90;;
12429;SDS011;6279;42.192;24.326;2022-09-12T06:06:11;8.50;;;2.17;;
12429;SDS011;6279;42.192;24.326;2022-09-12T06:08:39;3.93;;;1.53;;
12429;SDS011;6279;42.192;24.326;2022-09-12T06:11:06;2.37;;;1.70;;
12429;SDS011;6279;42.192;24.326;2022-09-12T06:13:34;4.30;;;2.17;;
12429;SDS011;6279;42.192;24.326;2022-09-12T06:16:04;3.50;;;1.60;;
12429;SDS011;6279;42.192;24.326;2022-09-12T06:18:32;1.80;;;1.20;;
12429;SDS011;6279;42.192;24.326;2022-09-12T06:21:02;3.07;;;1.40;;
12429;SDS011;6279;42.192;24.326;2022-09-12T06:23:35;4.40;;;1.40;;
12429;SDS011;6279;42.192;24.326;2022-09-12T06:26:02;2.67;;;1.47;;
12429;SDS011;6279;42.192;24.326;2022-09-12T06:28:28;2.17;;;1.60;;
12429;SDS011;6279;42.192;24.326;2022-09-12T06:30:59;2.90;;;1.20;;
12429;SDS011;6279;42.192;24.326;2022-09-12T06:33:29;1.70;;;1.13;;
12429;SDS011;6279;42.192;24.326;2022-09-12T06:36:07;4.32;;;1.20;;
12429;SDS011;6279;42.192;24.326;2022-09-12T06:38:34;3.70;;;1.42;;
12429;SDS011;6279;42.192;24.326;2022-09-12T06:41:02;4.35;;;1.40;;
12429;SDS011;6279;42.192;24.326;2022-09-12T06:43:29;1.05;;;1.00;;
12429;SDS011;6279;42.192;24.326;2022-09-12T06:45:55;2.83;;;1.30;;
12429;SDS011;6279;42.192;24.326;2022-09-12T06:48:21;3.88;;;1.20;;
12429;SDS011;6279;42.192;24.326;2022-09-12T06:50:56;2.33;;;1.20;;
12429;SDS011;6279;42.192;24.326;2022-09-12T06:53:23;3.05;;;1.20;;
12429;SDS011;6279;42.192;24.326;2022-09-12T06:56:05;4.22;;;1.60;;
12429;SDS011;6279;42.192;24.326;2022-09-12T06:58:34;2.40;;;1.33;;
12429;SDS011;6279;42.192;24.326;2022-09-12T07:01:10;3.38;;;1.10;;
12429;SDS011;6279;42.192;24.326;2022-09-12T07:03:37;2.38;;;1.00;;
12429;SDS011;6279;42.192;24.326;2022-09-12T07:08:30;4.15;;;1.50;;
12429;SDS011;6279;42.192;24.326;2022-09-12T07:10:56;1.75;;;1.15;;
12429;SDS011;6279;42.192;24.326;2022-09-12T07:13:32;1.80;;;1.00;;
12429;SDS011;6279;42.192;24.326;2022-09-12T07:16:00;3.00;;;1.20;;
12429;SDS011;6279;42.192;24.326;2022-09-12T07:18:26;1.13;;;0.95;;
12429;SDS011;6279;42.192;24.326;2022-09-12T07:20:52;1.10;;;1.00;;
12429;SDS011;6279;42.192;24.326;2022-09-12T07:23:17;1.80;;;1.10;;
12429;SDS011;6279;42.192;24.326;2022-09-12T07:25:43;1.08;;;0.98;;
12429;SDS011;6279;42.192;24.326;2022-09-12T07:28:08;2.92;;;1.38;;
12429;SDS011;6279;42.192;24.326;2022-09-12T07:30:35;1.35;;;1.10;;
12429;SDS011;6279;42.192;24.326;2022-09-12T07:33:00;1.33;;;0.88;;
12429;SDS011;6279;42.192;24.326;2022-09-12T07:35:26;2.47;;;1.02;;
12429;SDS011;6279;42.192;24.326;2022-09-12T07:37:51;3.15;;;1.10;;
12429;SDS011;6279;42.192;24.326;2022-09-12T07:40:16;3.30;;;1.10;;
12429;SDS011;6279;42.192;24.326;2022-09-12T07:42:42;2.67;;;0.90;;
12429;SDS011;6279;42.192;24.326;2022-09-12T07:45:07;1.08;;;0.85;;
12429;SDS011;6279;42.192;24.326;2022-09-12T07:47:34;1.85;;;1.02;;
12429;SDS011;6279;42.192;24.326;2022-09-12T07:49:59;1.35;;;1.00;;
12429;SDS011;6279;42.192;24.326;2022-09-12T07:52:25;2.65;;;1.00;;
12429;SDS011;6279;42.192;24.326;2022-09-12T07:54:50;2.28;;;1.05;;
12429;SDS011;6279;42.192;24.326;2022-09-12T07:57:16;3.13;;;1.05;;
12429;SDS011;6279;42.192;24.326;2022-09-12T07:59:41;1.30;;;0.60;;
12429;SDS011;6279;42.192;24.326;2022-09-12T08:02:10;2.08;;;0.80;;
12429;SDS011;6279;42.192;24.326;2022-09-12T08:04:38;2.40;;;0.90;;
12429;SDS011;6279;42.192;24.326;2022-09-12T08:07:03;3.95;;;1.20;;
12429;SDS011;6279;42.192;24.326;2022-09-12T08:09:30;3.15;;;1.13;;
12429;SDS011;6279;42.192;24.326;2022-09-12T08:11:56;1.08;;;0.90;;
12429;SDS011;6279;42.192;24.326;2022-09-12T08:14:21;2.40;;;1.05;;
12429;SDS011;6279;42.192;24.326;2022-09-12T08:16:46;1.15;;;1.02;;
12429;SDS011;6279;42.192;24.326;2022-09-12T08:19:12;3.70;;;1.00;;
12429;SDS011;6279;42.192;24.326;2022-09-12T08:21:37;1.83;;;1.05;;
12429;SDS011;6279;42.192;24.326;2022-09-12T08:24:03;1.05;;;1.00;;
12429;SDS011;6279;42.192;24.326;2022-09-12T08:26:30;1.58;;;1.17;;
12429;SDS011;6279;42.192;24.326;2022-09-12T08:28:57;1.48;;;1.10;;
12429;SDS011;6279;42.192;24.326;2022-09-12T08:31:23;1.00;;;0.90;;
12429;SDS011;6279;42.192;24.326;2022-09-12T08:33:50;1.15;;;0.80;;
12429;SDS011;6279;42.192;24.326;2022-09-12T08:36:19;1.27;;;1.00;;
12429;SDS011;6279;42.192;24.326;2022-09-12T08:38:47;1.70;;;1.02;;
12429;SDS011;6279;42.192;24.326;2022-09-12T08:49:00;3.22;;;1.15;;
12429;SDS011;6279;42.192;24.326;2022-09-12T08:51:28;3.28;;;0.90;;
12429;SDS011;6279;42.192;24.326;2022-09-12T08:53:57;3.58;;;1.00;;
12429;SDS011;6279;42.192;24.326;2022-09-12T08:56:25;7.30;;;1.02;;
12429;SDS011;6279;42.192;24.326;2022-09-12T08:58:55;1.75;;;0.93;;
12429;SDS011;6279;42.192;24.326;2022-09-12T09:17:22;2.15;;;1.23;;
12429;SDS011;6279;42.192;24.326;2022-09-12T09:19:56;1.65;;;0.98;;
12429;SDS011;6279;42.192;24.326;2022-09-12T09:22:40;2.95;;;1.33;;
12429;SDS011;6279;42.192;24.326;2022-09-12T09:25:16;2.65;;;1.25;;
12429;SDS011;6279;42.192;24.326;2022-09-12T09:27:48;2.90;;;1.00;;
12429;SDS011;6279;42.192;24.326;2022-09-12T09:30:15;1.08;;;0.90;;
12429;SDS011;6279;42.192;24.326;2022-09-12T09:32:43;2.10;;;1.10;;
12429;SDS011;6279;42.192;24.326;2022-09-12T09:35:24;2.00;;;1.08;;
12429;SDS011;6279;42.192;24.326;2022-09-12T09:40:29;1.30;;;1.17;;
12429;SDS011;6279;42.192;24.326;2022-09-12T09:43:18;1.20;;;1.05;;
12429;SDS011;6279;42.192;24.326;2022-09-12T09:45:46;4.85;;;1.10;;
12429;SDS011;6279;42.192;24.326;2022-09-12T09:50:41;2.30;;;1.42;;
12429;SDS011;6279;42.192;24.326;2022-09-12T09:53:08;1.05;;;0.95;;
12429;SDS011;6279;42.192;24.326;2022-09-12T09:55:50;1.67;;;1.20;;
12429;SDS011;6279;42.192;24.326;2022-09-12T09:58:31;4.15;;;1.25;;
12429;SDS011;6279;42.192;24.326;2022-09-12T10:01:03;3.80;;;1.55;;
12429;SDS011;6279;42.192;24.326;2022-09-12T10:03:36;2.28;;;1.40;;
12429;SDS011;6279;42.192;24.326;2022-09-12T10:08:47;1.67;;;1.13;;
12429;SDS011;6279;42.192;24.326;2022-09-12T10:13:51;1.38;;;1.27;;
12429;SDS011;6279;42.192;24.326;2022-09-12T10:16:24;2.30;;;1.40;;
12429;SDS011;6279;42.192;24.326;2022-09-12T10:18:52;1.20;;;1.10;;
12429;SDS011;6279;42.192;24.326;2022-09-12T10:26:37;2.83;;;1.20;;
12429;SDS011;6279;42.192;24.326;2022-09-12T10:29:09;1.83;;;1.10;;
12429;SDS011;6279;42.192;24.326;2022-09-12T10:31:55;1.30;;;1.20;;
12429;SDS011;6279;42.192;24.326;2022-09-12T10:34:36;1.50;;;1.40;;
12429;SDS011;6279;42.192;24.326;2022-09-12T10:37:49;3.35;;;1.20;;
12429;SDS011;6279;42.192;24.326;2022-09-12T10:40:23;3.10;;;1.55;;
12429;SDS011;6279;42.192;24.326;2022-09-12T10:42:55;1.63;;;1.20;;
12429;SDS011;6279;42.192;24.326;2022-09-12T10:48:00;4.97;;;1.27;;
12429;SDS011;6279;42.192;24.326;2022-09-12T10:53:15;2.13;;;1.33;;
12429;SDS011;6279;42.192;24.326;2022-09-12T10:56:06;4.80;;;1.60;;
12429;SDS011;6279;42.192;24.326;2022-09-12T11:01:57;2.45;;;1.45;;
12429;SDS011;6279;42.192;24.326;2022-09-12T11:04:26;2.00;;;1.20;;
12429;SDS011;6279;42.192;24.326;2022-09-12T11:18:29;3.15;;;1.60;;
12429;SDS011;6279;42.192;24.326;2022-09-12T11:43:09;1.40;;;1.30;;
12429;SDS011;6279;42.192;24.326;2022-09-12T11:45:40;2.50;;;1.45;;
12429;SDS011;6279;42.192;24.326;2022-09-12T11:48:10;1.55;;;1.10;;
12429;SDS011;6279;42.192;24.326;2022-09-12T11:51:02;1.23;;;1.05;;
12429;SDS011;6279;42.192;24.326;2022-09-12T11:53:33;2.40;;;1.20;;
12429;SDS011;6279;42.192;24.326;2022-09-12T11:56:11;4.00;;;1.10;;
12429;SDS011;6279;42.192;24.326;2022-09-12T11:58:41;4.10;;;1.48;;
12429;SDS011;6279;42.192;24.326;2022-09-12T12:01:19;1.27;;;1.17;;
12429;SDS011;6279;42.192;24.326;2022-09-12T12:03:47;1.17;;;1.08;;
12429;SDS011;6279;42.192;24.326;2022-09-12T12:06:34;2.80;;;1.15;;
12429;SDS011;6279;42.192;24.326;2022-09-12T12:09:09;3.92;;;1.13;;
12429;SDS011;6279;42.192;24.326;2022-09-12T12:11:37;1.25;;;1.10;;
12429;SDS011;6279;42.192;24.326;2022-09-12T12:14:15;1.73;;;1.50;;
12429;SDS011;6279;42.192;24.326;2022-09-12T12:16:46;1.98;;;1.30;;
12429;SDS011;6279;42.192;24.326;2022-09-12T12:21:40;2.97;;;1.10;;
12429;SDS011;6279;42.192;24.326;2022-09-12T12:29:03;3.78;;;1.60;;
12429;SDS011;6279;42.192;24.326;2022-09-12T12:34:33;2.15;;;1.60;;
12429;SDS011;6279;42.192;24.326;2022-09-12T12:40:07;1.70;;;1.60;;
12429;SDS011;6279;42.192;24.326;2022-09-12T12:47:45;3.45;;;1.98;;
12429;SDS011;6279;42.192;24.326;2022-09-12T12:55:25;4.30;;;2.33;;
12429;SDS011;6279;42.192;24.326;2022-09-12T12:57:55;2.63;;;2.28;;
12429;SDS011;6279;42.192;24.326;2022-09-12T13:02:51;3.50;;;1.95;;
12429;SDS011;6279;42.192;24.326;2022-09-12T13:05:20;2.60;;;1.90;;
12429;SDS011;6279;42.192;24.326;2022-09-12T13:11:00;2.85;;;1.83;;
12429;SDS011;6279;42.192;24.326;2022-09-12T13:13:36;2.05;;;1.92;;
12429;SDS011;6279;42.192;24.326;2022-09-12T13:16:07;3.05;;;2.40;;
12429;SDS011;6279;42.192;24.326;2022-09-12T13:21:12;2.83;;;2.15;;
12429;SDS011;6279;42.192;24.326;2022-09-12T13:23:38;2.20;;;2.10;;
12429;SDS011;6279;42.192;24.326;2022-09-12T13:26:11;4.07;;;2.40;;
12429;SDS011;6279;42.192;24.326;2022-09-12T13:28:47;2.70;;;2.50;;
12429;SDS011;6279;42.192;24.326;2022-09-12T13:33:56;4.90;;;2.95;;
12429;SDS011;6279;42.192;24.326;2022-09-12T13:36:31;5.15;;;4.32;;
12429;SDS011;6279;42.192;24.326;2022-09-12T13:44:21;6.43;;;3.20;;
12429;SDS011;6279;42.192;24.326;2022-09-12T13:46:49;4.50;;;2.85;;
12429;SDS011;6279;42.192;24.326;2022-09-12T13:49:25;3.33;;;3.08;;
12429;SDS011;6279;42.192;24.326;2022-09-12T13:54:48;3.47;;;3.17;;
12429;SDS011;6279;42.192;24.326;2022-09-12T13:57:27;3.67;;;3.38;;
12429;SDS011;6279;42.192;24.326;2022-09-12T13:59:55;5.75;;;3.30;;
12429;SDS011;6279;42.192;24.326;2022-09-12T14:02:23;4.97;;;3.28;;
12429;SDS011;6279;42.192;24.326;2022-09-12T14:04:51;6.82;;;3.45;;
12429;SDS011;6279;42.192;24.326;2022-09-12T14:10:12;3.63;;;3.30;;
12429;SDS011;6279;42.192;24.326;2022-09-12T14:12:42;5.05;;;3.33;;
12429;SDS011;6279;42.192;24.326;2022-09-12T14:15:19;4.45;;;3.75;;
12429;SDS011;6279;42.192;24.326;2022-09-12T14:17:52;5.18;;;3.50;;
12429;SDS011;6279;42.192;24.326;2022-09-12T14:20:20;3.83;;;3.50;;
12429;SDS011;6279;42.192;24.326;2022-09-12T14:22:47;10.40;;;3.92;;
12429;SDS011;6279;42.192;24.326;2022-09-12T14:25:15;4.00;;;3.70;;
12429;SDS011;6279;42.192;24.326;2022-09-12T14:27:44;5.20;;;3.72;;
12429;SDS011;6279;42.192;24.326;2022-09-12T14:30:24;5.10;;;3.70;;
12429;SDS011;6279;42.192;24.326;2022-09-12T14:35:35;4.20;;;3.90;;
12429;SDS011;6279;42.192;24.326;2022-09-12T14:38:05;4.78;;;4.00;;
12429;SDS011;6279;42.192;24.326;2022-09-12T14:40:43;4.60;;;4.20;;
12429;SDS011;6279;42.192;24.326;2022-09-12T14:43:31;3.67;;;3.15;;
12429;SDS011;6279;42.192;24.326;2022-09-12T14:48:26;3.85;;;3.55;;
12429;SDS011;6279;42.192;24.326;2022-09-12T14:50:56;4.23;;;3.83;;
12429;SDS011;6279;42.192;24.326;2022-09-12T14:53:32;3.40;;;3.10;;
12429;SDS011;6279;42.192;24.326;2022-09-12T14:56:07;7.83;;;2.90;;
12429;SDS011;6279;42.192;24.326;2022-09-12T14:58:34;3.20;;;2.87;;
12429;SDS011;6279;42.192;24.326;2022-09-12T15:01:19;4.10;;;2.70;;
12429;SDS011;6279;42.192;24.326;2022-09-12T15:08:54;3.07;;;2.70;;
12429;SDS011;6279;42.192;24.326;2022-09-12T15:11:21;6.97;;;3.90;;
12429;SDS011;6279;42.192;24.326;2022-09-12T15:13:47;3.90;;;2.90;;
12429;SDS011;6279;42.192;24.326;2022-09-12T15:16:12;3.33;;;2.93;;
12429;SDS011;6279;42.192;24.326;2022-09-12T15:18:38;3.70;;;2.50;;
12429;SDS011;6279;42.192;24.326;2022-09-12T15:21:04;3.08;;;2.55;;
12429;SDS011;6279;42.192;24.326;2022-09-12T15:23:40;2.83;;;2.63;;
12429;SDS011;6279;42.192;24.326;2022-09-12T15:26:13;7.60;;;3.10;;
12429;SDS011;6279;42.192;24.326;2022-09-12T15:28:40;4.17;;;2.60;;
12429;SDS011;6279;42.192;24.326;2022-09-12T15:31:10;3.27;;;2.97;;
12429;SDS011;6279;42.192;24.326;2022-09-12T15:33:36;5.23;;;3.03;;
12429;SDS011;6279;42.192;24.326;2022-09-12T15:36:02;3.55;;;2.90;;
12429;SDS011;6279;42.192;24.326;2022-09-12T15:38:28;3.17;;;2.83;;
12429;SDS011;6279;42.192;24.326;2022-09-12T15:40:53;2.50;;;2.30;;
12429;SDS011;6279;42.192;24.326;2022-09-12T15:43:19;5.47;;;2.87;;
12429;SDS011;6279;42.192;24.326;2022-09-12T15:45:46;4.13;;;3.47;;
12429;SDS011;6279;42.192;24.326;2022-09-12T15:48:12;7.23;;;3.30;;
12429;SDS011;6279;42.192;24.326;2022-09-12T15:50:39;4.10;;;3.70;;
12429;SDS011;6279;42.192;24.326;2022-09-12T15:53:05;16.43;;;10.57;;
12429;SDS011;6279;42.192;24.326;2022-09-12T15:55:30;5.47;;;4.87;;
12429;SDS011;6279;42.192;24.326;2022-09-12T15:57:57;8.03;;;6.97;;
12429;SDS011;6279;42.192;24.326;2022-09-12T16:00:23;16.60;;;12.43;;
12429;SDS011;6279;42.192;24.326;2022-09-12T16:02:50;16.60;;;12.17;;
12429;SDS011;6279;42.192;24.326;2022-09-12T16:05:21;11.03;;;8.30;;
12429;SDS011;6279;42.192;24.326;2022-09-12T16:07:52;4.50;;;4.10;;
12429;SDS011;6279;42.192;24.326;2022-09-12T16:10:20;4.10;;;3.80;;
12429;SDS011;6279;42.192;24.326;2022-09-12T16:12:47;16.87;;;5.27;;
12429;SDS011;6279;42.192;24.326;2022-09-12T16:15:14;22.30;;;16.13;;
12429;SDS011;6279;42.192;24.326;2022-09-12T16:17:42;11.13;;;9.07;;
12429;SDS011;6279;42.192;24.326;2022-09-12T16:20:08;4.87;;;4.33;;
12429;SDS011;6279;42.192;24.326;2022-09-12T16:22:34;4.50;;;4.10;;
12429;SDS011;6279;42.192;24.326;2022-09-12T16:25:00;5.03;;;4.60;;
12429;SDS011;6279;42.192;24.326;2022-09-12T16:27:25;4.10;;;3.80;;
12429;SDS011;6279;42.192;24.326;2022-09-12T16:29:51;5.13;;;4.20;;
12429;SDS011;6279;42.192;24.326;2022-09-12T16:32:16;4.40;;;3.60;;
12429;SDS011;6279;42.192;24.326;2022-09-12T16:34:42;4.20;;;3.90;;
12429;SDS011;6279;42.192;24.326;2022-09-12T16:37:07;4.17;;;3.80;;
12429;SDS011;6279;42.192;24.326;2022-09-12T16:39:33;4.53;;;4.20;;
12429;SDS011;6279;42.192;24.326;2022-09-12T16:41:58;5.40;;;4.90;;
12429;SDS011;6279;42.192;24.326;2022-09-12T16:44:24;4.63;;;4.23;;
12429;SDS011;6279;42.192;24.326;2022-09-12T16:46:49;4.73;;;4.30;;
12429;SDS011;6279;42.192;24.326;2022-09-12T16:49:15;5.97;;;4.60;;
12429;SDS011;6279;42.192;24.326;2022-09-12T16:51:40;5.57;;;5.07;;
12429;SDS011;6279;42.192;24.326;2022-09-12T16:54:09;4.90;;;4.50;;
12429;SDS011;6279;42.192;24.326;2022-09-12T16:56:34;5.77;;;4.57;;
12429;SDS011;6279;42.192;24.326;2022-09-12T16:59:00;5.20;;;4.80;;
12429;SDS011;6279;42.192;24.326;2022-09-12T17:01:25;4.77;;;4.33;;
12429;SDS011;6279;42.192;24.326;2022-09-12T17:03:52;4.80;;;4.40;;
12429;SDS011;6279;42.192;24.326;2022-09-12T17:06:18;5.63;;;5.23;;
12429;SDS011;6279;42.192;24.326;2022-09-12T17:08:45;7.00;;;4.80;;
12429;SDS011;6279;42.192;24.326;2022-09-12T17:11:34;5.50;;;5.00;;
12429;SDS011;6279;42.192;24.326;2022-09-12T17:14:00;5.77;;;5.27;;
12429;SDS011;6279;42.192;24.326;2022-09-12T17:16:27;8.67;;;5.00;;
12429;SDS011;6279;42.192;24.326;2022-09-12T17:18:53;5.20;;;4.70;;
12429;SDS011;6279;42.192;24.326;2022-09-12T17:21:22;6.63;;;5.50;;
12429;SDS011;6279;42.192;24.326;2022-09-12T17:23:48;6.73;;;5.07;;
12429;SDS011;6279;42.192;24.326;2022-09-12T17:26:13;5.73;;;5.20;;
12429;SDS011;6279;42.192;24.326;2022-09-12T17:28:42;6.87;;;5.30;;
12429;SDS011;6279;42.192;24.326;2022-09-12T17:31:09;7.07;;;6.00;;
12429;SDS011;6279;42.192;24.326;2022-09-12T17:33:36;5.90;;;5.10;;
12429;SDS011;6279;42.192;24.326;2022-09-12T17:36:19;8.03;;;5.70;;
12429;SDS011;6279;42.192;24.326;2022-09-12T17:38:45;6.17;;;5.67;;
12429;SDS011;6279;42.192;24.326;2022-09-12T17:41:15;6.87;;;6.17;;
12429;SDS011;6279;42.192;24.326;2022-09-12T17:43:45;6.30;;;5.70;;
12429;SDS011;6279;42.192;24.326;2022-09-12T17:46:14;7.57;;;6.20;;
12429;SDS011;6279;42.192;24.326;2022-09-12T17:48:39;6.30;;;5.70;;
12429;SDS011;6279;42.192;24.326;2022-09-12T17:51:06;9.13;;;5.60;;
12429;SDS011;6279;42.192;24.326;2022-09-12T17:53:43;5.50;;;5.10;;
12429;SDS011;6279;42.192;24.326;2022-09-12T17:56:08;8.37;;;5.70;;
12429;SDS011;6279;42.192;24.326;2022-09-12T17:58:35;5.20;;;4.80;;
12429;SDS011;6279;42.192;24.326;2022-09-12T18:01:05;5.60;;;5.10;;
12429;SDS011;6279;42.192;24.326;2022-09-12T18:03:57;4.67;;;4.37;;
12429;SDS011;6279;42.192;24.326;2022-09-12T18:06:27;5.20;;;4.73;;
12429;SDS011;6279;42.192;24.326;2022-09-12T18:08:53;5.47;;;5.07;;